This is the latest recevied weather packets stored in our database for station/object KR0L-13. If no packets are shown the sender has not sent any weather packets the latest 10 day(s).
| Time | Temp. | Humidity | Pressure | Rain* | Wind** | Luminosity | Snow |
|---|---|---|---|---|---|---|---|
| 1787922322 | 21.67° C | 70% | 1021 hPa | 0 mm | - | - | - |
| 1787921721 | 21.67° C | 70% | 1020.7 hPa | 0 mm | - | - | - |
| 1787921121 | 21.67° C | 70% | 1020.8 hPa | 0 mm | - | - | - |
| 1787920521 | 21.67° C | 71% | 1020.6 hPa | 0 mm | - | - | - |
| 1787919921 | 21.67° C | 70% | 1020.3 hPa | 0 mm | - | - | - |
| 1787919321 | 21.11° C | 71% | 1020.3 hPa | 0 mm | - | - | - |
| 1787918721 | 21.11° C | 72% | 1019.9 hPa | 0 mm | - | - | - |
| 1787918121 | 20.56° C | 72% | 1019.8 hPa | 0 mm | - | - | - |
| 1787917521 | 21.11° C | 71% | 1020.2 hPa | 0 mm | - | - | - |
| 1787916921 | 21.11° C | 71% | 1020.5 hPa | 0 mm | - | - | - |
| 1787916321 | 20.56° C | 72% | 1020.3 hPa | 0 mm | - | - | - |
| 1787915721 | 20.56° C | 72% | 1020.6 hPa | 0 mm | - | - | - |
| 1787915121 | 20.56° C | 73% | 1020.6 hPa | 0 mm | - | - | - |
| 1787914521 | 20° C | 74% | 1020.7 hPa | 0 mm | - | - | - |
| 1787913921 | 20° C | 74% | 1020.6 hPa | 0 mm | - | - | - |
| 1787913321 | 20° C | 74% | 1021 hPa | 0 mm | - | - | - |
| 1787912726 | 20.56° C | 71% | 1021.2 hPa | 0 mm | - | - | - |
| 1787912121 | 21.11° C | 71% | 1021.9 hPa | 0 mm | - | - | - |
| 1787911521 | 21.11° C | 71% | 1022.2 hPa | 0 mm | - | - | - |
| 1787910921 | 20.56° C | 74% | 1022.1 hPa | 0 mm | - | - | - |
| 1787910321 | 20° C | 76% | 1021.8 hPa | 0 mm | - | - | - |
| 1787909721 | 20° C | 75% | 1020.3 hPa | 0 mm | - | - | - |
| 1787909121 | 20° C | 74% | 1019.9 hPa | 0 mm | - | - | - |
| 1787908521 | 20.56° C | 74% | 1019.8 hPa | 0 mm | - | - | - |
| 1787907921 | 20.56° C | 74% | 1020 hPa | 0 mm | - | - | - |
* Rain latest hour (hover to see other rain measurements)
** Current wind speed in m/s (hover to see current wind gust speed)